sensor_id;sensor_type;location;lat;lon;timestamp;P1;durP1;ratioP1;P2;durP2;ratioP2
34673;SDS011;20879;55.668;37.858;2023-06-22T00:02:07;18.42;;;7.32;;
34673;SDS011;20879;55.668;37.858;2023-06-22T00:04:39;20.45;;;7.60;;
34673;SDS011;20879;55.668;37.858;2023-06-22T00:07:13;21.73;;;7.85;;
34673;SDS011;20879;55.668;37.858;2023-06-22T00:09:43;23.63;;;8.63;;
34673;SDS011;20879;55.668;37.858;2023-06-22T00:12:12;20.27;;;7.78;;
34673;SDS011;20879;55.668;37.858;2023-06-22T00:14:42;21.92;;;8.35;;
34673;SDS011;20879;55.668;37.858;2023-06-22T00:17:11;18.60;;;8.90;;
34673;SDS011;20879;55.668;37.858;2023-06-22T00:19:42;18.33;;;7.15;;
34673;SDS011;20879;55.668;37.858;2023-06-22T00:22:12;20.15;;;7.85;;
34673;SDS011;20879;55.668;37.858;2023-06-22T00:24:43;24.38;;;7.82;;
34673;SDS011;20879;55.668;37.858;2023-06-22T00:27:12;19.83;;;7.82;;
34673;SDS011;20879;55.668;37.858;2023-06-22T00:29:42;20.98;;;8.00;;
34673;SDS011;20879;55.668;37.858;2023-06-22T00:32:18;26.98;;;8.07;;
34673;SDS011;20879;55.668;37.858;2023-06-22T00:34:49;17.00;;;8.30;;
34673;SDS011;20879;55.668;37.858;2023-06-22T00:37:19;27.27;;;8.32;;
34673;SDS011;20879;55.668;37.858;2023-06-22T00:39:52;16.67;;;6.80;;
34673;SDS011;20879;55.668;37.858;2023-06-22T00:42:21;18.90;;;7.55;;
34673;SDS011;20879;55.668;37.858;2023-06-22T00:44:52;17.85;;;7.10;;
34673;SDS011;20879;55.668;37.858;2023-06-22T00:47:23;19.83;;;7.30;;
34673;SDS011;20879;55.668;37.858;2023-06-22T00:50:02;20.92;;;7.00;;
34673;SDS011;20879;55.668;37.858;2023-06-22T00:52:32;19.05;;;7.70;;
34673;SDS011;20879;55.668;37.858;2023-06-22T00:55:02;19.80;;;7.90;;
34673;SDS011;20879;55.668;37.858;2023-06-22T00:57:33;24.08;;;8.30;;
34673;SDS011;20879;55.668;37.858;2023-06-22T01:00:04;25.05;;;8.00;;
34673;SDS011;20879;55.668;37.858;2023-06-22T01:02:35;17.85;;;8.13;;
34673;SDS011;20879;55.668;37.858;2023-06-22T01:05:07;22.83;;;7.65;;
34673;SDS011;20879;55.668;37.858;2023-06-22T01:07:45;22.27;;;8.10;;
34673;SDS011;20879;55.668;37.858;2023-06-22T01:10:24;18.88;;;7.93;;
34673;SDS011;20879;55.668;37.858;2023-06-22T01:13:04;24.95;;;8.32;;
34673;SDS011;20879;55.668;37.858;2023-06-22T01:15:47;19.33;;;7.72;;
34673;SDS011;20879;55.668;37.858;2023-06-22T01:18:20;26.23;;;8.00;;
34673;SDS011;20879;55.668;37.858;2023-06-22T01:20:54;23.80;;;7.78;;
34673;SDS011;20879;55.668;37.858;2023-06-22T01:23:27;25.02;;;7.85;;
34673;SDS011;20879;55.668;37.858;2023-06-22T01:26:08;21.02;;;8.35;;
34673;SDS011;20879;55.668;37.858;2023-06-22T01:28:54;28.90;;;8.25;;
34673;SDS011;20879;55.668;37.858;2023-06-22T01:31:27;19.38;;;7.93;;
34673;SDS011;20879;55.668;37.858;2023-06-22T01:33:59;27.13;;;8.43;;
34673;SDS011;20879;55.668;37.858;2023-06-22T01:36:31;26.65;;;8.70;;
34673;SDS011;20879;55.668;37.858;2023-06-22T01:39:02;20.58;;;7.97;;
34673;SDS011;20879;55.668;37.858;2023-06-22T01:41:39;22.23;;;8.43;;
34673;SDS011;20879;55.668;37.858;2023-06-22T01:46:47;17.75;;;7.43;;
34673;SDS011;20879;55.668;37.858;2023-06-22T01:49:20;22.92;;;7.70;;
34673;SDS011;20879;55.668;37.858;2023-06-22T01:51:49;16.92;;;8.77;;
34673;SDS011;20879;55.668;37.858;2023-06-22T01:54:21;28.83;;;10.15;;
34673;SDS011;20879;55.668;37.858;2023-06-22T01:56:50;28.58;;;9.10;;
34673;SDS011;20879;55.668;37.858;2023-06-22T01:59:23;25.75;;;9.00;;
34673;SDS011;20879;55.668;37.858;2023-06-22T02:01:58;25.13;;;8.05;;
34673;SDS011;20879;55.668;37.858;2023-06-22T02:04:34;28.30;;;8.70;;
34673;SDS011;20879;55.668;37.858;2023-06-22T02:07:17;20.42;;;8.38;;
34673;SDS011;20879;55.668;37.858;2023-06-22T02:09:49;16.30;;;8.18;;
34673;SDS011;20879;55.668;37.858;2023-06-22T02:12:30;21.33;;;8.43;;
34673;SDS011;20879;55.668;37.858;2023-06-22T02:15:04;21.90;;;8.80;;
34673;SDS011;20879;55.668;37.858;2023-06-22T02:17:36;23.33;;;8.77;;
34673;SDS011;20879;55.668;37.858;2023-06-22T02:20:06;20.48;;;8.30;;
34673;SDS011;20879;55.668;37.858;2023-06-22T02:22:50;17.83;;;8.73;;
34673;SDS011;20879;55.668;37.858;2023-06-22T02:25:20;18.70;;;7.68;;
34673;SDS011;20879;55.668;37.858;2023-06-22T02:27:49;21.48;;;8.23;;
34673;SDS011;20879;55.668;37.858;2023-06-22T02:30:23;17.90;;;8.35;;
34673;SDS011;20879;55.668;37.858;2023-06-22T02:33:04;18.60;;;8.32;;
34673;SDS011;20879;55.668;37.858;2023-06-22T02:35:34;20.58;;;8.30;;
34673;SDS011;20879;55.668;37.858;2023-06-22T02:38:03;18.10;;;8.65;;
34673;SDS011;20879;55.668;37.858;2023-06-22T02:40:34;20.27;;;8.82;;
34673;SDS011;20879;55.668;37.858;2023-06-22T02:43:03;20.48;;;9.43;;
34673;SDS011;20879;55.668;37.858;2023-06-22T02:45:36;24.40;;;8.63;;
34673;SDS011;20879;55.668;37.858;2023-06-22T02:48:05;21.80;;;8.80;;
34673;SDS011;20879;55.668;37.858;2023-06-22T02:50:34;21.63;;;9.00;;
34673;SDS011;20879;55.668;37.858;2023-06-22T02:53:05;16.58;;;8.75;;
34673;SDS011;20879;55.668;37.858;2023-06-22T02:55:40;19.67;;;9.50;;
34673;SDS011;20879;55.668;37.858;2023-06-22T03:00:47;17.15;;;9.25;;
34673;SDS011;20879;55.668;37.858;2023-06-22T03:03:21;22.27;;;9.18;;
34673;SDS011;20879;55.668;37.858;2023-06-22T03:05:58;17.05;;;9.40;;
34673;SDS011;20879;55.668;37.858;2023-06-22T03:08:33;24.02;;;9.18;;
34673;SDS011;20879;55.668;37.858;2023-06-22T03:11:03;26.52;;;9.68;;
34673;SDS011;20879;55.668;37.858;2023-06-22T03:13:32;19.23;;;9.25;;
34673;SDS011;20879;55.668;37.858;2023-06-22T03:16:04;15.82;;;8.80;;
34673;SDS011;20879;55.668;37.858;2023-06-22T03:18:33;25.85;;;8.93;;
34673;SDS011;20879;55.668;37.858;2023-06-22T03:21:03;20.85;;;9.43;;
34673;SDS011;20879;55.668;37.858;2023-06-22T03:23:32;22.85;;;9.07;;
34673;SDS011;20879;55.668;37.858;2023-06-22T03:26:08;23.98;;;9.88;;
34673;SDS011;20879;55.668;37.858;2023-06-22T03:28:38;17.00;;;8.50;;
34673;SDS011;20879;55.668;37.858;2023-06-22T03:31:09;18.65;;;8.45;;
34673;SDS011;20879;55.668;37.858;2023-06-22T03:33:45;18.40;;;9.13;;
34673;SDS011;20879;55.668;37.858;2023-06-22T03:36:23;19.73;;;8.43;;
34673;SDS011;20879;55.668;37.858;2023-06-22T03:38:57;26.25;;;9.25;;
34673;SDS011;20879;55.668;37.858;2023-06-22T03:41:31;24.27;;;9.27;;
34673;SDS011;20879;55.668;37.858;2023-06-22T03:44:01;24.08;;;9.68;;
34673;SDS011;20879;55.668;37.858;2023-06-22T03:46:37;19.80;;;8.55;;
34673;SDS011;20879;55.668;37.858;2023-06-22T03:49:07;20.70;;;9.02;;
34673;SDS011;20879;55.668;37.858;2023-06-22T03:51:36;19.70;;;8.40;;
34673;SDS011;20879;55.668;37.858;2023-06-22T03:54:06;17.45;;;7.78;;
34673;SDS011;20879;55.668;37.858;2023-06-22T03:56:40;20.05;;;8.38;;
34673;SDS011;20879;55.668;37.858;2023-06-22T03:59:09;18.65;;;8.10;;
34673;SDS011;20879;55.668;37.858;2023-06-22T04:01:41;15.68;;;7.30;;
34673;SDS011;20879;55.668;37.858;2023-06-22T04:04:11;16.10;;;7.60;;
34673;SDS011;20879;55.668;37.858;2023-06-22T04:06:40;17.83;;;7.90;;
34673;SDS011;20879;55.668;37.858;2023-06-22T04:11:53;19.42;;;7.05;;
34673;SDS011;20879;55.668;37.858;2023-06-22T04:14:22;21.00;;;7.95;;
34673;SDS011;20879;55.668;37.858;2023-06-22T04:16:53;17.65;;;7.38;;
34673;SDS011;20879;55.668;37.858;2023-06-22T04:19:23;22.10;;;7.70;;
34673;SDS011;20879;55.668;37.858;2023-06-22T04:21:52;18.55;;;7.93;;
34673;SDS011;20879;55.668;37.858;2023-06-22T04:24:26;15.70;;;7.18;;
34673;SDS011;20879;55.668;37.858;2023-06-22T04:26:56;14.60;;;7.45;;
34673;SDS011;20879;55.668;37.858;2023-06-22T04:29:40;12.63;;;7.05;;
34673;SDS011;20879;55.668;37.858;2023-06-22T04:32:17;17.88;;;6.47;;
34673;SDS011;20879;55.668;37.858;2023-06-22T04:34:46;15.43;;;7.80;;
34673;SDS011;20879;55.668;37.858;2023-06-22T04:37:16;19.95;;;8.10;;
34673;SDS011;20879;55.668;37.858;2023-06-22T04:39:45;17.55;;;8.00;;
34673;SDS011;20879;55.668;37.858;2023-06-22T04:42:15;15.35;;;7.10;;
34673;SDS011;20879;55.668;37.858;2023-06-22T04:44:44;16.15;;;6.90;;
34673;SDS011;20879;55.668;37.858;2023-06-22T04:47:14;19.50;;;7.15;;
34673;SDS011;20879;55.668;37.858;2023-06-22T04:49:45;11.10;;;5.97;;
34673;SDS011;20879;55.668;37.858;2023-06-22T04:52:14;11.65;;;6.97;;
34673;SDS011;20879;55.668;37.858;2023-06-22T04:54:48;15.75;;;7.28;;
34673;SDS011;20879;55.668;37.858;2023-06-22T04:57:22;13.48;;;6.85;;
34673;SDS011;20879;55.668;37.858;2023-06-22T05:00:04;13.48;;;5.45;;
34673;SDS011;20879;55.668;37.858;2023-06-22T05:02:49;10.40;;;5.63;;
34673;SDS011;20879;55.668;37.858;2023-06-22T05:05:36;11.48;;;5.57;;
34673;SDS011;20879;55.668;37.858;2023-06-22T05:08:06;15.15;;;5.22;;
34673;SDS011;20879;55.668;37.858;2023-06-22T05:10:35;10.40;;;5.65;;
34673;SDS011;20879;55.668;37.858;2023-06-22T05:13:21;9.70;;;5.07;;
34673;SDS011;20879;55.668;37.858;2023-06-22T05:15:52;10.77;;;5.15;;
34673;SDS011;20879;55.668;37.858;2023-06-22T05:18:27;11.70;;;5.30;;
34673;SDS011;20879;55.668;37.858;2023-06-22T05:21:00;9.00;;;5.10;;
34673;SDS011;20879;55.668;37.858;2023-06-22T05:26:03;11.32;;;4.50;;
34673;SDS011;20879;55.668;37.858;2023-06-22T05:28:36;9.57;;;4.65;;
34673;SDS011;20879;55.668;37.858;2023-06-22T05:31:11;9.45;;;4.45;;
34673;SDS011;20879;55.668;37.858;2023-06-22T05:33:40;7.22;;;4.43;;
34673;SDS011;20879;55.668;37.858;2023-06-22T05:36:12;11.27;;;5.10;;
34673;SDS011;20879;55.668;37.858;2023-06-22T05:38:47;11.32;;;4.30;;
34673;SDS011;20879;55.668;37.858;2023-06-22T05:41:17;10.30;;;4.25;;
34673;SDS011;20879;55.668;37.858;2023-06-22T05:43:47;7.43;;;3.80;;
34673;SDS011;20879;55.668;37.858;2023-06-22T05:46:17;8.88;;;4.05;;
34673;SDS011;20879;55.668;37.858;2023-06-22T05:48:52;13.38;;;3.92;;
34673;SDS011;20879;55.668;37.858;2023-06-22T05:51:24;11.13;;;3.80;;
34673;SDS011;20879;55.668;37.858;2023-06-22T05:56:22;8.70;;;3.72;;
34673;SDS011;20879;55.668;37.858;2023-06-22T05:58:57;6.07;;;3.30;;
34673;SDS011;20879;55.668;37.858;2023-06-22T06:01:33;7.22;;;3.80;;
34673;SDS011;20879;55.668;37.858;2023-06-22T06:04:03;4.80;;;3.42;;
34673;SDS011;20879;55.668;37.858;2023-06-22T06:06:36;10.07;;;3.58;;
34673;SDS011;20879;55.668;37.858;2023-06-22T06:09:10;6.03;;;3.30;;
34673;SDS011;20879;55.668;37.858;2023-06-22T06:11:40;8.88;;;3.38;;
34673;SDS011;20879;55.668;37.858;2023-06-22T06:14:09;9.57;;;3.28;;
34673;SDS011;20879;55.668;37.858;2023-06-22T06:19:10;7.75;;;3.72;;
34673;SDS011;20879;55.668;37.858;2023-06-22T06:21:41;4.78;;;3.38;;
34673;SDS011;20879;55.668;37.858;2023-06-22T06:24:11;5.45;;;3.00;;
34673;SDS011;20879;55.668;37.858;2023-06-22T06:26:40;3.03;;;2.72;;
34673;SDS011;20879;55.668;37.858;2023-06-22T06:29:10;7.20;;;3.33;;
34673;SDS011;20879;55.668;37.858;2023-06-22T06:31:44;5.03;;;3.15;;
34673;SDS011;20879;55.668;37.858;2023-06-22T06:34:19;4.07;;;3.45;;
34673;SDS011;20879;55.668;37.858;2023-06-22T06:36:51;4.15;;;3.25;;
34673;SDS011;20879;55.668;37.858;2023-06-22T06:39:20;6.15;;;2.90;;
34673;SDS011;20879;55.668;37.858;2023-06-22T06:41:50;5.63;;;2.95;;
34673;SDS011;20879;55.668;37.858;2023-06-22T06:44:19;5.13;;;3.20;;
34673;SDS011;20879;55.668;37.858;2023-06-22T06:46:48;5.85;;;3.20;;
34673;SDS011;20879;55.668;37.858;2023-06-22T06:49:20;3.50;;;2.47;;
34673;SDS011;20879;55.668;37.858;2023-06-22T06:51:52;5.30;;;3.13;;
34673;SDS011;20879;55.668;37.858;2023-06-22T06:54:22;6.38;;;3.08;;
34673;SDS011;20879;55.668;37.858;2023-06-22T06:56:57;8.18;;;3.60;;
34673;SDS011;20879;55.668;37.858;2023-06-22T06:59:27;4.13;;;3.28;;
34673;SDS011;20879;55.668;37.858;2023-06-22T07:01:56;5.15;;;3.50;;
34673;SDS011;20879;55.668;37.858;2023-06-22T07:04:44;6.85;;;3.10;;
34673;SDS011;20879;55.668;37.858;2023-06-22T07:07:16;4.53;;;3.35;;
34673;SDS011;20879;55.668;37.858;2023-06-22T07:09:46;10.18;;;3.60;;
34673;SDS011;20879;55.668;37.858;2023-06-22T07:12:15;5.53;;;3.60;;
34673;SDS011;20879;55.668;37.858;2023-06-22T07:14:44;5.97;;;3.33;;
34673;SDS011;20879;55.668;37.858;2023-06-22T07:17:14;9.52;;;3.95;;
34673;SDS011;20879;55.668;37.858;2023-06-22T07:19:48;6.13;;;3.00;;
34673;SDS011;20879;55.668;37.858;2023-06-22T07:22:23;5.47;;;3.08;;
34673;SDS011;20879;55.668;37.858;2023-06-22T07:27:22;8.13;;;3.40;;
34673;SDS011;20879;55.668;37.858;2023-06-22T07:29:51;7.28;;;3.08;;
34673;SDS011;20879;55.668;37.858;2023-06-22T07:32:31;5.03;;;3.03;;
34673;SDS011;20879;55.668;37.858;2023-06-22T07:35:00;4.90;;;3.40;;
34673;SDS011;20879;55.668;37.858;2023-06-22T07:37:33;4.38;;;3.25;;
34673;SDS011;20879;55.668;37.858;2023-06-22T07:40:03;4.60;;;3.38;;
34673;SDS011;20879;55.668;37.858;2023-06-22T07:42:34;5.63;;;3.58;;
34673;SDS011;20879;55.668;37.858;2023-06-22T07:45:04;3.70;;;3.20;;
34673;SDS011;20879;55.668;37.858;2023-06-22T07:47:35;5.60;;;3.58;;
34673;SDS011;20879;55.668;37.858;2023-06-22T07:50:10;5.90;;;3.45;;
34673;SDS011;20879;55.668;37.858;2023-06-22T07:52:47;5.15;;;3.00;;
34673;SDS011;20879;55.668;37.858;2023-06-22T07:55:19;6.95;;;4.05;;
34673;SDS011;20879;55.668;37.858;2023-06-22T07:57:55;6.55;;;3.92;;
34673;SDS011;20879;55.668;37.858;2023-06-22T08:00:43;6.05;;;3.45;;
34673;SDS011;20879;55.668;37.858;2023-06-22T08:03:13;4.22;;;2.97;;
34673;SDS011;20879;55.668;37.858;2023-06-22T08:05:47;5.93;;;3.42;;
34673;SDS011;20879;55.668;37.858;2023-06-22T08:08:19;8.82;;;3.97;;
34673;SDS011;20879;55.668;37.858;2023-06-22T08:10:49;9.00;;;4.00;;
34673;SDS011;20879;55.668;37.858;2023-06-22T08:13:18;14.55;;;3.55;;
34673;SDS011;20879;55.668;37.858;2023-06-22T08:15:47;7.03;;;3.60;;
34673;SDS011;20879;55.668;37.858;2023-06-22T08:18:17;4.25;;;2.95;;
34673;SDS011;20879;55.668;37.858;2023-06-22T08:20:47;6.30;;;3.72;;
34673;SDS011;20879;55.668;37.858;2023-06-22T08:23:24;4.68;;;3.50;;
34673;SDS011;20879;55.668;37.858;2023-06-22T08:28:23;4.63;;;2.67;;
34673;SDS011;20879;55.668;37.858;2023-06-22T08:30:52;5.97;;;2.95;;
34673;SDS011;20879;55.668;37.858;2023-06-22T08:33:22;6.30;;;3.10;;
34673;SDS011;20879;55.668;37.858;2023-06-22T08:35:54;7.65;;;3.63;;
34673;SDS011;20879;55.668;37.858;2023-06-22T08:38:26;6.13;;;3.40;;
34673;SDS011;20879;55.668;37.858;2023-06-22T08:40:55;5.00;;;3.55;;
34673;SDS011;20879;55.668;37.858;2023-06-22T08:43:25;6.47;;;3.65;;
34673;SDS011;20879;55.668;37.858;2023-06-22T08:45:54;9.07;;;4.15;;
34673;SDS011;20879;55.668;37.858;2023-06-22T08:48:23;7.50;;;3.60;;
34673;SDS011;20879;55.668;37.858;2023-06-22T08:50:53;4.38;;;3.10;;
34673;SDS011;20879;55.668;37.858;2023-06-22T08:53:29;7.18;;;3.72;;
34673;SDS011;20879;55.668;37.858;2023-06-22T08:55:59;5.03;;;3.50;;
34673;SDS011;20879;55.668;37.858;2023-06-22T08:58:28;5.60;;;3.30;;
34673;SDS011;20879;55.668;37.858;2023-06-22T09:01:02;7.85;;;3.88;;
34673;SDS011;20879;55.668;37.858;2023-06-22T09:03:32;6.40;;;3.50;;
34673;SDS011;20879;55.668;37.858;2023-06-22T09:06:03;4.63;;;3.30;;
34673;SDS011;20879;55.668;37.858;2023-06-22T09:08:38;9.32;;;3.70;;
34673;SDS011;20879;55.668;37.858;2023-06-22T09:11:17;5.57;;;3.63;;
34673;SDS011;20879;55.668;37.858;2023-06-22T09:16:23;4.32;;;3.13;;
34673;SDS011;20879;55.668;37.858;2023-06-22T09:18:53;5.60;;;3.42;;
34673;SDS011;20879;55.668;37.858;2023-06-22T09:21:23;8.63;;;3.40;;
34673;SDS011;20879;55.668;37.858;2023-06-22T09:23:59;5.68;;;3.53;;
34673;SDS011;20879;55.668;37.858;2023-06-22T09:28:58;6.47;;;3.42;;
34673;SDS011;20879;55.668;37.858;2023-06-22T09:31:32;5.93;;;3.58;;
34673;SDS011;20879;55.668;37.858;2023-06-22T09:34:02;6.57;;;3.67;;
34673;SDS011;20879;55.668;37.858;2023-06-22T09:36:36;6.40;;;3.92;;
34673;SDS011;20879;55.668;37.858;2023-06-22T09:39:23;4.68;;;3.35;;
34673;SDS011;20879;55.668;37.858;2023-06-22T09:41:52;7.47;;;4.03;;
34673;SDS011;20879;55.668;37.858;2023-06-22T09:44:22;6.68;;;3.47;;
34673;SDS011;20879;55.668;37.858;2023-06-22T09:46:51;3.65;;;2.75;;
34673;SDS011;20879;55.668;37.858;2023-06-22T09:49:21;7.07;;;3.90;;
34673;SDS011;20879;55.668;37.858;2023-06-22T09:52:10;3.72;;;2.88;;
34673;SDS011;20879;55.668;37.858;2023-06-22T09:54:52;8.77;;;4.43;;
34673;SDS011;20879;55.668;37.858;2023-06-22T09:57:22;5.65;;;3.50;;
34673;SDS011;20879;55.668;37.858;2023-06-22T09:59:51;6.45;;;3.72;;
34673;SDS011;20879;55.668;37.858;2023-06-22T10:02:20;4.90;;;3.55;;
34673;SDS011;20879;55.668;37.858;2023-06-22T10:04:55;7.85;;;3.92;;
34673;SDS011;20879;55.668;37.858;2023-06-22T10:07:26;5.65;;;3.60;;
34673;SDS011;20879;55.668;37.858;2023-06-22T10:09:58;6.28;;;2.90;;
34673;SDS011;20879;55.668;37.858;2023-06-22T10:12:43;8.73;;;3.80;;
34673;SDS011;20879;55.668;37.858;2023-06-22T10:15:27;5.22;;;3.67;;
34673;SDS011;20879;55.668;37.858;2023-06-22T10:17:57;4.85;;;3.60;;
34673;SDS011;20879;55.668;37.858;2023-06-22T10:20:34;6.47;;;3.63;;
34673;SDS011;20879;55.668;37.858;2023-06-22T10:23:08;3.08;;;2.80;;
34673;SDS011;20879;55.668;37.858;2023-06-22T10:25:39;6.95;;;3.75;;
34673;SDS011;20879;55.668;37.858;2023-06-22T10:28:14;8.02;;;3.63;;
34673;SDS011;20879;55.668;37.858;2023-06-22T10:30:43;3.88;;;2.75;;
34673;SDS011;20879;55.668;37.858;2023-06-22T10:33:19;4.22;;;2.60;;
34673;SDS011;20879;55.668;37.858;2023-06-22T10:36:08;6.78;;;3.47;;
34673;SDS011;20879;55.668;37.858;2023-06-22T10:38:42;4.55;;;3.45;;
34673;SDS011;20879;55.668;37.858;2023-06-22T10:41:15;4.05;;;3.42;;
34673;SDS011;20879;55.668;37.858;2023-06-22T10:43:50;5.07;;;3.78;;
34673;SDS011;20879;55.668;37.858;2023-06-22T10:49:28;6.88;;;3.55;;
34673;SDS011;20879;55.668;37.858;2023-06-22T10:52:12;7.15;;;3.63;;
34673;SDS011;20879;55.668;37.858;2023-06-22T10:54:41;5.72;;;3.53;;
34673;SDS011;20879;55.668;37.858;2023-06-22T10:57:13;6.00;;;3.97;;
34673;SDS011;20879;55.668;37.858;2023-06-22T10:59:47;7.68;;;3.88;;
34673;SDS011;20879;55.668;37.858;2023-06-22T11:02:17;4.93;;;3.70;;
34673;SDS011;20879;55.668;37.858;2023-06-22T11:04:47;8.43;;;4.15;;
34673;SDS011;20879;55.668;37.858;2023-06-22T11:07:16;6.65;;;3.80;;
34673;SDS011;20879;55.668;37.858;2023-06-22T11:09:46;4.03;;;3.33;;
34673;SDS011;20879;55.668;37.858;2023-06-22T11:12:43;6.95;;;4.00;;
34673;SDS011;20879;55.668;37.858;2023-06-22T11:15:12;5.75;;;4.00;;
34673;SDS011;20879;55.668;37.858;2023-06-22T11:17:42;7.38;;;4.05;;
34673;SDS011;20879;55.668;37.858;2023-06-22T11:20:26;6.03;;;3.75;;
34673;SDS011;20879;55.668;37.858;2023-06-22T11:22:56;7.32;;;4.50;;
34673;SDS011;20879;55.668;37.858;2023-06-22T11:25:31;5.60;;;4.32;;
34673;SDS011;20879;55.668;37.858;2023-06-22T11:28:04;7.72;;;4.45;;
34673;SDS011;20879;55.668;37.858;2023-06-22T11:30:33;6.35;;;4.40;;
34673;SDS011;20879;55.668;37.858;2023-06-22T11:33:03;7.75;;;4.32;;
34673;SDS011;20879;55.668;37.858;2023-06-22T11:35:32;5.13;;;4.25;;
34673;SDS011;20879;55.668;37.858;2023-06-22T11:38:01;7.05;;;3.75;;
34673;SDS011;20879;55.668;37.858;2023-06-22T11:43:18;6.78;;;4.35;;
34673;SDS011;20879;55.668;37.858;2023-06-22T11:45:53;6.05;;;4.22;;
34673;SDS011;20879;55.668;37.858;2023-06-22T11:48:27;6.32;;;4.43;;
34673;SDS011;20879;55.668;37.858;2023-06-22T11:50:57;10.18;;;4.53;;
34673;SDS011;20879;55.668;37.858;2023-06-22T11:53:27;6.53;;;4.63;;
34673;SDS011;20879;55.668;37.858;2023-06-22T11:55:56;8.98;;;4.85;;
34673;SDS011;20879;55.668;37.858;2023-06-22T11:58:40;7.18;;;4.65;;
34673;SDS011;20879;55.668;37.858;2023-06-22T12:01:14;7.55;;;4.60;;
34673;SDS011;20879;55.668;37.858;2023-06-22T12:03:43;7.68;;;4.40;;
34673;SDS011;20879;55.668;37.858;2023-06-22T12:06:31;8.20;;;4.47;;
34673;SDS011;20879;55.668;37.858;2023-06-22T12:11:32;5.40;;;4.47;;
34673;SDS011;20879;55.668;37.858;2023-06-22T12:14:03;6.03;;;4.80;;
34673;SDS011;20879;55.668;37.858;2023-06-22T12:16:39;9.05;;;4.85;;
34673;SDS011;20879;55.668;37.858;2023-06-22T12:19:10;6.93;;;4.75;;
34673;SDS011;20879;55.668;37.858;2023-06-22T12:21:40;7.35;;;4.93;;
34673;SDS011;20879;55.668;37.858;2023-06-22T12:24:12;5.68;;;4.13;;
34673;SDS011;20879;55.668;37.858;2023-06-22T12:26:41;7.30;;;4.90;;
34673;SDS011;20879;55.668;37.858;2023-06-22T12:29:31;7.22;;;4.80;;
34673;SDS011;20879;55.668;37.858;2023-06-22T12:32:10;6.95;;;4.85;;
34673;SDS011;20879;55.668;37.858;2023-06-22T12:34:41;7.95;;;4.82;;
34673;SDS011;20879;55.668;37.858;2023-06-22T12:40:16;10.52;;;4.93;;
34673;SDS011;20879;55.668;37.858;2023-06-22T12:42:51;7.47;;;5.05;;
34673;SDS011;20879;55.668;37.858;2023-06-22T12:50:47;8.90;;;4.82;;
34673;SDS011;20879;55.668;37.858;2023-06-22T12:56:04;10.90;;;5.45;;
34673;SDS011;20879;55.668;37.858;2023-06-22T12:58:33;8.85;;;4.80;;
34673;SDS011;20879;55.668;37.858;2023-06-22T13:03:52;6.90;;;4.93;;
34673;SDS011;20879;55.668;37.858;2023-06-22T13:06:23;8.80;;;4.90;;
34673;SDS011;20879;55.668;37.858;2023-06-22T13:08:53;8.48;;;5.30;;
34673;SDS011;20879;55.668;37.858;2023-06-22T13:11:49;9.43;;;5.05;;
34673;SDS011;20879;55.668;37.858;2023-06-22T13:14:19;11.23;;;5.35;;
34673;SDS011;20879;55.668;37.858;2023-06-22T13:16:53;12.75;;;5.25;;
34673;SDS011;20879;55.668;37.858;2023-06-22T13:19:22;8.52;;;5.10;;
34673;SDS011;20879;55.668;37.858;2023-06-22T13:21:57;8.18;;;5.15;;
34673;SDS011;20879;55.668;37.858;2023-06-22T13:24:33;9.93;;;5.10;;
34673;SDS011;20879;55.668;37.858;2023-06-22T13:27:02;7.22;;;5.22;;
34673;SDS011;20879;55.668;37.858;2023-06-22T13:29:32;7.40;;;5.07;;
34673;SDS011;20879;55.668;37.858;2023-06-22T13:32:01;7.80;;;5.00;;
34673;SDS011;20879;55.668;37.858;2023-06-22T13:34:30;7.80;;;5.05;;
34673;SDS011;20879;55.668;37.858;2023-06-22T13:37:02;9.40;;;5.32;;
34673;SDS011;20879;55.668;37.858;2023-06-22T13:39:36;6.78;;;4.75;;
34673;SDS011;20879;55.668;37.858;2023-06-22T13:42:06;12.85;;;5.13;;
34673;SDS011;20879;55.668;37.858;2023-06-22T13:44:36;11.27;;;5.00;;
34673;SDS011;20879;55.668;37.858;2023-06-22T13:47:06;6.95;;;5.10;;
34673;SDS011;20879;55.668;37.858;2023-06-22T13:49:41;7.72;;;4.70;;
34673;SDS011;20879;55.668;37.858;2023-06-22T13:52:17;7.70;;;4.72;;
34673;SDS011;20879;55.668;37.858;2023-06-22T13:54:47;8.10;;;5.03;;
34673;SDS011;20879;55.668;37.858;2023-06-22T13:57:16;9.98;;;5.20;;
34673;SDS011;20879;55.668;37.858;2023-06-22T13:59:52;5.50;;;4.65;;
34673;SDS011;20879;55.668;37.858;2023-06-22T14:02:37;7.95;;;4.50;;
34673;SDS011;20879;55.668;37.858;2023-06-22T14:05:13;11.05;;;7.28;;
34673;SDS011;20879;55.668;37.858;2023-06-22T14:07:44;7.38;;;5.00;;
34673;SDS011;20879;55.668;37.858;2023-06-22T14:10:21;7.82;;;5.00;;
34673;SDS011;20879;55.668;37.858;2023-06-22T14:13:00;9.63;;;5.47;;
34673;SDS011;20879;55.668;37.858;2023-06-22T14:15:32;8.50;;;5.38;;
34673;SDS011;20879;55.668;37.858;2023-06-22T14:18:02;10.93;;;5.80;;
34673;SDS011;20879;55.668;37.858;2023-06-22T14:20:36;8.82;;;5.50;;
34673;SDS011;20879;55.668;37.858;2023-06-22T14:23:08;8.40;;;6.05;;
34673;SDS011;20879;55.668;37.858;2023-06-22T14:25:43;9.32;;;6.40;;
34673;SDS011;20879;55.668;37.858;2023-06-22T14:28:12;8.43;;;5.93;;
34673;SDS011;20879;55.668;37.858;2023-06-22T14:30:48;7.45;;;5.50;;
34673;SDS011;20879;55.668;37.858;2023-06-22T14:33:17;10.73;;;5.50;;
34673;SDS011;20879;55.668;37.858;2023-06-22T14:35:51;9.25;;;5.80;;
34673;SDS011;20879;55.668;37.858;2023-06-22T14:39:07;10.73;;;5.55;;
34673;SDS011;20879;55.668;37.858;2023-06-22T14:44:21;8.35;;;5.40;;
34673;SDS011;20879;55.668;37.858;2023-06-22T14:46:52;12.15;;;5.93;;
34673;SDS011;20879;55.668;37.858;2023-06-22T14:52:11;11.55;;;6.00;;
34673;SDS011;20879;55.668;37.858;2023-06-22T14:54:42;8.30;;;5.50;;
34673;SDS011;20879;55.668;37.858;2023-06-22T14:57:12;7.50;;;5.35;;
34673;SDS011;20879;55.668;37.858;2023-06-22T15:05:05;12.07;;;5.32;;
34673;SDS011;20879;55.668;37.858;2023-06-22T15:07:40;8.05;;;5.13;;
34673;SDS011;20879;55.668;37.858;2023-06-22T15:10:30;5.40;;;4.55;;
34673;SDS011;20879;55.668;37.858;2023-06-22T15:13:06;6.95;;;4.82;;
34673;SDS011;20879;55.668;37.858;2023-06-22T15:15:36;8.15;;;5.03;;
34673;SDS011;20879;55.668;37.858;2023-06-22T15:18:16;9.25;;;6.10;;
34673;SDS011;20879;55.668;37.858;2023-06-22T15:20:46;10.43;;;5.70;;
34673;SDS011;20879;55.668;37.858;2023-06-22T15:26:03;14.10;;;6.68;;
34673;SDS011;20879;55.668;37.858;2023-06-22T15:28:34;9.45;;;6.15;;
34673;SDS011;20879;55.668;37.858;2023-06-22T15:31:04;12.20;;;6.22;;
34673;SDS011;20879;55.668;37.858;2023-06-22T15:33:34;12.02;;;5.30;;
34673;SDS011;20879;55.668;37.858;2023-06-22T15:36:04;20.27;;;5.47;;
34673;SDS011;20879;55.668;37.858;2023-06-22T15:38:35;10.88;;;4.60;;
34673;SDS011;20879;55.668;37.858;2023-06-22T15:41:11;15.45;;;4.18;;
34673;SDS011;20879;55.668;37.858;2023-06-22T15:43:41;14.38;;;4.32;;
34673;SDS011;20879;55.668;37.858;2023-06-22T15:46:10;23.95;;;4.22;;
34673;SDS011;20879;55.668;37.858;2023-06-22T15:48:39;14.00;;;4.10;;
34673;SDS011;20879;55.668;37.858;2023-06-22T15:51:09;6.88;;;3.50;;
34673;SDS011;20879;55.668;37.858;2023-06-22T15:53:48;12.90;;;4.18;;
34673;SDS011;20879;55.668;37.858;2023-06-22T15:56:26;17.00;;;4.20;;
34673;SDS011;20879;55.668;37.858;2023-06-22T15:59:15;12.38;;;4.32;;
34673;SDS011;20879;55.668;37.858;2023-06-22T16:01:45;8.85;;;3.97;;
34673;SDS011;20879;55.668;37.858;2023-06-22T16:04:15;6.38;;;3.40;;